RYR6KC EIDW-EKCH
Flight info
| Callsign | RYR6KC |
|---|---|
| Flight time | 1h 55m |
| Altitude | 37000 |
| Route | ROTEV8E ROTEV DCT GOTNA DCT TRN DCT ZOFAT DCT SURAT DCT PETIL DCT TESPI |
| Aircraft | B738/M-SDE2E3FGHIRWXY/LB1 |
Departure
| Time | 2026-04-25 15:17 |
|---|---|
| Airport | Dublin Airport (EIDW) |
Arrival
| Time | 2026-04-25 17:13 |
|---|---|
| Airport | Copenhagen Kastrup Airport (EKCH) |
| Time | Latitude | Longitude | Altitude | Speed | Heading |
|---|---|---|---|---|---|
| 2026-04-25 14:26 | 53.43002 | -6.24813 | 210 ft | 0 kts | 6° |
| 2026-04-25 15:06 | 53.42966 | -6.24819 | 216 ft | 3 kts | 6° |
| 2026-04-25 15:06 | 53.42948 | -6.24819 | 210 ft | 4 kts | 315° |
| 2026-04-25 15:06 | 53.42940 | -6.24785 | 218 ft | 4 kts | 275° |
| 2026-04-25 15:06 | 53.42938 | -6.24748 | 214 ft | 1 kts | 275° |
| 2026-04-25 15:10 | 53.42940 | -6.24794 | 218 ft | 10 kts | 265° |
| 2026-04-25 15:10 | 53.42897 | -6.24904 | 215 ft | 12 kts | 227° |
| 2026-04-25 15:10 | 53.42792 | -6.25102 | 215 ft | 11 kts | 262° |
| 2026-04-25 15:11 | 53.42794 | -6.25229 | 210 ft | 11 kts | 259° |
| 2026-04-25 15:11 | 53.42751 | -6.25327 | 214 ft | 10 kts | 225° |
| 2026-04-25 15:11 | 53.42701 | -6.25413 | 214 ft | 10 kts | 225° |
| 2026-04-25 15:12 | 53.42584 | -6.25611 | 210 ft | 14 kts | 226° |
| 2026-04-25 15:12 | 53.42509 | -6.25740 | 210 ft | 17 kts | 225° |
| 2026-04-25 15:12 | 53.42421 | -6.25886 | 215 ft | 18 kts | 225° |
| 2026-04-25 15:12 | 53.42392 | -6.25936 | 210 ft | 19 kts | 225° |
| 2026-04-25 15:13 | 53.42270 | -6.26219 | 212 ft | 18 kts | 258° |
| 2026-04-25 15:13 | 53.42286 | -6.26663 | 210 ft | 19 kts | 275° |
| 2026-04-25 15:13 | 53.42298 | -6.26883 | 210 ft | 19 kts | 275° |
| 2026-04-25 15:14 | 53.42310 | -6.27096 | 217 ft | 18 kts | 275° |
| 2026-04-25 15:14 | 53.42321 | -6.27301 | 212 ft | 17 kts | 275° |
| 2026-04-25 15:14 | 53.42332 | -6.27500 | 210 ft | 17 kts | 275° |
| 2026-04-25 15:14 | 53.42344 | -6.27717 | 210 ft | 20 kts | 275° |
| 2026-04-25 15:15 | 53.42358 | -6.27976 | 212 ft | 24 kts | 275° |
| 2026-04-25 15:15 | 53.42374 | -6.28258 | 210 ft | 24 kts | 275° |
| 2026-04-25 15:15 | 53.42388 | -6.28526 | 210 ft | 23 kts | 275° |
| 2026-04-25 15:15 | 53.42403 | -6.28784 | 210 ft | 22 kts | 275° |
| 2026-04-25 15:16 | 53.42398 | -6.29016 | 210 ft | 15 kts | 242° |
| 2026-04-25 15:16 | 53.42323 | -6.29073 | 209 ft | 12 kts | 177° |
| 2026-04-25 15:16 | 53.42239 | -6.28940 | 212 ft | 11 kts | 95° |
| 2026-04-25 15:17 | 53.42179 | -6.27845 | 210 ft | 115 kts | 95° |
| 2026-04-25 15:17 | 53.42085 | -6.26173 | 363 ft | 161 kts | 97° |
| 2026-04-25 15:17 | 53.41996 | -6.24327 | 1348 ft | 155 kts | 95° |
| 2026-04-25 15:18 | 53.41916 | -6.22431 | 2020 ft | 171 kts | 97° |
| 2026-04-25 15:18 | 53.41695 | -6.18121 | 3126 ft | 204 kts | 99° |
| 2026-04-25 15:18 | 53.41515 | -6.15723 | 3686 ft | 212 kts | 97° |
| 2026-04-25 15:19 | 53.41359 | -6.13144 | 4012 ft | 234 kts | 97° |
| 2026-04-25 15:19 | 53.41254 | -6.11291 | 4230 ft | 247 kts | 96° |
| 2026-04-25 15:19 | 53.41030 | -6.07220 | 4793 ft | 272 kts | 96° |
| 2026-04-25 15:19 | 53.40906 | -6.04042 | 5622 ft | 275 kts | 87° |
| 2026-04-25 15:20 | 53.41499 | -6.01006 | 6456 ft | 279 kts | 56° |
| 2026-04-25 15:20 | 53.42907 | -5.98771 | 7225 ft | 283 kts | 28° |
| 2026-04-25 15:20 | 53.44786 | -5.97800 | 8003 ft | 285 kts | 4° |
| 2026-04-25 15:20 | 53.46779 | -5.97859 | 8672 ft | 288 kts | 354° |
| 2026-04-25 15:21 | 53.48787 | -5.98179 | 8994 ft | 292 kts | 353° |
| 2026-04-25 15:21 | 53.50813 | -5.98509 | 8995 ft | 293 kts | 353° |
| 2026-04-25 15:21 | 53.52855 | -5.98837 | 9210 ft | 297 kts | 351° |
| 2026-04-25 15:21 | 53.54892 | -5.99442 | 10054 ft | 296 kts | 347° |
| 2026-04-25 15:22 | 53.56921 | -6.00137 | 10700 ft | 305 kts | 347° |
| 2026-04-25 15:22 | 53.59082 | -6.00884 | 10894 ft | 329 kts | 347° |
| 2026-04-25 15:22 | 53.61346 | -6.01650 | 11357 ft | 341 kts | 347° |
| 2026-04-25 15:22 | 53.63691 | -6.02425 | 12051 ft | 345 kts | 347° |
| 2026-04-25 15:23 | 53.66062 | -6.03197 | 12831 ft | 349 kts | 347° |
| 2026-04-25 15:23 | 53.68459 | -6.03974 | 13586 ft | 353 kts | 347° |
| 2026-04-25 15:23 | 53.70884 | -6.04760 | 14303 ft | 358 kts | 347° |
| 2026-04-25 15:23 | 53.73351 | -6.05497 | 15028 ft | 362 kts | 352° |
| 2026-04-25 15:24 | 53.75876 | -6.05769 | 15790 ft | 365 kts | 357° |
| 2026-04-25 15:24 | 53.78432 | -6.05817 | 16539 ft | 369 kts | 358° |
| 2026-04-25 15:24 | 53.81015 | -6.05825 | 17265 ft | 373 kts | 358° |
| 2026-04-25 15:24 | 53.82742 | -6.05842 | 17734 ft | 376 kts | 357° |
| 2026-04-25 15:25 | 53.86268 | -6.05921 | 18667 ft | 381 kts | 356° |
| 2026-04-25 15:25 | 53.88927 | -6.06013 | 19277 ft | 385 kts | 356° |
| 2026-04-25 15:25 | 53.91613 | -6.06120 | 19917 ft | 387 kts | 356° |
| 2026-04-25 15:25 | 53.94318 | -6.06235 | 20558 ft | 390 kts | 356° |
| 2026-04-25 15:26 | 53.97044 | -6.06352 | 21178 ft | 393 kts | 356° |
| 2026-04-25 15:26 | 53.99799 | -6.06469 | 21784 ft | 397 kts | 356° |
| 2026-04-25 15:26 | 54.02575 | -6.06398 | 22363 ft | 403 kts | 6° |
| 2026-04-25 15:26 | 54.05265 | -6.04913 | 22943 ft | 411 kts | 23° |
| 2026-04-25 15:27 | 54.07852 | -6.02805 | 23555 ft | 414 kts | 24° |
| 2026-04-25 15:27 | 54.10447 | -6.00622 | 24065 ft | 418 kts | 24° |
| 2026-04-25 15:27 | 54.15654 | -5.96238 | 25061 ft | 422 kts | 24° |
| 2026-04-25 15:28 | 54.18307 | -5.94028 | 25536 ft | 425 kts | 24° |
| 2026-04-25 15:28 | 54.20975 | -5.91819 | 25983 ft | 428 kts | 24° |
| 2026-04-25 15:28 | 54.23664 | -5.89601 | 26430 ft | 430 kts | 24° |
| 2026-04-25 15:28 | 54.26369 | -5.87371 | 26885 ft | 433 kts | 24° |
| 2026-04-25 15:29 | 54.29088 | -5.85128 | 27330 ft | 435 kts | 24° |
| 2026-04-25 15:29 | 54.31824 | -5.82868 | 27753 ft | 438 kts | 24° |
| 2026-04-25 15:29 | 54.34576 | -5.80592 | 28171 ft | 441 kts | 24° |
| 2026-04-25 15:29 | 54.37343 | -5.78298 | 28615 ft | 443 kts | 24° |
| 2026-04-25 15:30 | 54.40118 | -5.75994 | 29099 ft | 443 kts | 24° |
| 2026-04-25 15:30 | 54.42894 | -5.73686 | 29522 ft | 445 kts | 24° |
| 2026-04-25 15:30 | 54.45690 | -5.71356 | 29900 ft | 448 kts | 24° |
| 2026-04-25 15:30 | 54.48511 | -5.69004 | 30263 ft | 451 kts | 24° |
| 2026-04-25 15:31 | 54.51348 | -5.66634 | 30569 ft | 453 kts | 24° |
| 2026-04-25 15:31 | 54.54189 | -5.64256 | 30897 ft | 455 kts | 24° |
| 2026-04-25 15:31 | 54.57003 | -5.61899 | 31222 ft | 456 kts | 24° |
| 2026-04-25 15:31 | 54.59894 | -5.59432 | 31526 ft | 459 kts | 27° |
| 2026-04-25 15:32 | 54.62654 | -5.56630 | 31822 ft | 462 kts | 31° |
| 2026-04-25 15:32 | 54.65361 | -5.53619 | 32092 ft | 464 kts | 32° |
| 2026-04-25 15:32 | 54.68055 | -5.50525 | 32402 ft | 465 kts | 33° |
| 2026-04-25 15:33 | 54.73424 | -5.44353 | 33265 ft | 461 kts | 32° |
| 2026-04-25 15:33 | 54.76100 | -5.41311 | 33671 ft | 460 kts | 32° |
| 2026-04-25 15:33 | 54.78771 | -5.38295 | 34030 ft | 459 kts | 32° |
| 2026-04-25 15:33 | 54.81449 | -5.35282 | 34362 ft | 459 kts | 32° |
| 2026-04-25 15:34 | 54.84089 | -5.32313 | 34664 ft | 458 kts | 32° |
| 2026-04-25 15:34 | 54.86791 | -5.29272 | 34970 ft | 458 kts | 32° |
| 2026-04-25 15:34 | 54.89462 | -5.26262 | 35258 ft | 457 kts | 32° |
| 2026-04-25 15:34 | 54.91231 | -5.24265 | 35438 ft | 457 kts | 32° |
| 2026-04-25 15:35 | 54.97427 | -5.17247 | 36076 ft | 457 kts | 33° |
| 2026-04-25 15:35 | 55.00087 | -5.14226 | 36368 ft | 456 kts | 33° |
| 2026-04-25 15:35 | 55.02746 | -5.11201 | 36626 ft | 456 kts | 33° |
| 2026-04-25 15:36 | 55.08060 | -5.05140 | 37140 ft | 456 kts | 33° |
| 2026-04-25 15:36 | 55.10713 | -5.02107 | 37399 ft | 456 kts | 33° |
| 2026-04-25 15:36 | 55.13364 | -4.99071 | 37645 ft | 456 kts | 33° |
| 2026-04-25 15:37 | 55.16015 | -4.96031 | 37893 ft | 455 kts | 33° |
| 2026-04-25 15:37 | 55.18662 | -4.92989 | 38155 ft | 455 kts | 34° |
| 2026-04-25 15:37 | 55.21307 | -4.89946 | 38379 ft | 455 kts | 34° |
| 2026-04-25 15:37 | 55.23953 | -4.86897 | 38576 ft | 456 kts | 34° |
| 2026-04-25 15:38 | 55.26601 | -4.83841 | 38787 ft | 456 kts | 34° |
| 2026-04-25 15:38 | 55.29225 | -4.80727 | 38985 ft | 455 kts | 38° |
| 2026-04-25 15:38 | 55.31588 | -4.77046 | 39133 ft | 454 kts | 47° |
| 2026-04-25 15:38 | 55.33596 | -4.72765 | 39185 ft | 455 kts | 57° |
| 2026-04-25 15:39 | 55.37077 | -4.63435 | 39183 ft | 456 kts | 58° |
| 2026-04-25 15:39 | 55.40508 | -4.54104 | 39176 ft | 453 kts | 58° |
| 2026-04-25 15:40 | 55.42810 | -4.47922 | 39175 ft | 451 kts | 58° |
| 2026-04-25 15:40 | 55.47384 | -4.35706 | 39178 ft | 447 kts | 58° |
| 2026-04-25 15:41 | 55.50796 | -4.26561 | 39186 ft | 445 kts | 58° |
| 2026-04-25 15:41 | 55.54187 | -4.17437 | 39185 ft | 444 kts | 58° |
| 2026-04-25 15:42 | 55.57549 | -4.08297 | 39194 ft | 443 kts | 61° |
| 2026-04-25 15:42 | 55.59759 | -3.98223 | 39192 ft | 440 kts | 81° |
| 2026-04-25 15:43 | 55.60582 | -3.87525 | 39194 ft | 440 kts | 85° |
| 2026-04-25 15:43 | 55.61291 | -3.76767 | 39196 ft | 441 kts | 85° |
| 2026-04-25 15:44 | 55.62022 | -3.65970 | 39200 ft | 443 kts | 85° |
| 2026-04-25 15:44 | 55.62772 | -3.55141 | 39213 ft | 444 kts | 84° |
| 2026-04-25 15:45 | 55.63525 | -3.44291 | 39226 ft | 445 kts | 84° |
| 2026-04-25 15:45 | 55.64027 | -3.37003 | 39233 ft | 445 kts | 85° |
| 2026-04-25 15:46 | 55.65010 | -3.22506 | 39236 ft | 446 kts | 85° |
| 2026-04-25 15:46 | 55.65737 | -3.11603 | 39237 ft | 446 kts | 85° |
| 2026-04-25 15:47 | 55.66454 | -3.00698 | 39236 ft | 445 kts | 85° |
| 2026-04-25 15:47 | 55.67161 | -2.89801 | 39242 ft | 445 kts | 85° |
| 2026-04-25 15:48 | 55.67857 | -2.78914 | 39243 ft | 444 kts | 85° |
| 2026-04-25 15:48 | 55.68542 | -2.68036 | 39253 ft | 444 kts | 85° |
| 2026-04-25 15:49 | 55.69214 | -2.57223 | 39264 ft | 444 kts | 85° |
| 2026-04-25 15:49 | 55.69879 | -2.46353 | 39259 ft | 444 kts | 85° |
| 2026-04-25 15:50 | 55.70536 | -2.35458 | 39260 ft | 445 kts | 85° |
| 2026-04-25 15:50 | 55.71184 | -2.24547 | 39263 ft | 445 kts | 85° |
| 2026-04-25 15:51 | 55.71613 | -2.17241 | 39266 ft | 446 kts | 84° |
| 2026-04-25 15:51 | 55.72454 | -2.02667 | 39279 ft | 446 kts | 85° |
| 2026-04-25 15:52 | 55.73076 | -1.91698 | 39271 ft | 447 kts | 85° |
| 2026-04-25 15:52 | 55.73689 | -1.80710 | 39277 ft | 448 kts | 85° |
| 2026-04-25 15:53 | 55.74293 | -1.69709 | 39277 ft | 448 kts | 85° |
| 2026-04-25 15:53 | 55.74886 | -1.58709 | 39279 ft | 448 kts | 84° |
| 2026-04-25 15:54 | 55.75471 | -1.47691 | 39283 ft | 448 kts | 85° |
| 2026-04-25 15:54 | 55.76045 | -1.36673 | 39280 ft | 448 kts | 85° |
| 2026-04-25 15:55 | 55.76610 | -1.25659 | 39274 ft | 448 kts | 85° |
| 2026-04-25 15:55 | 55.77160 | -1.14724 | 39285 ft | 447 kts | 85° |
| 2026-04-25 15:56 | 55.77703 | -1.03727 | 39277 ft | 447 kts | 84° |
| 2026-04-25 15:56 | 55.78236 | -0.92740 | 39283 ft | 446 kts | 84° |
| 2026-04-25 15:57 | 55.78758 | -0.81779 | 39271 ft | 445 kts | 84° |
| 2026-04-25 15:57 | 55.79269 | -0.70851 | 39272 ft | 443 kts | 85° |
| 2026-04-25 15:58 | 55.79767 | -0.59965 | 39273 ft | 441 kts | 85° |
| 2026-04-25 15:58 | 55.80254 | -0.49118 | 39277 ft | 439 kts | 85° |
| 2026-04-25 15:59 | 55.80730 | -0.38306 | 39282 ft | 438 kts | 85° |
| 2026-04-25 15:59 | 55.81196 | -0.27518 | 39269 ft | 437 kts | 85° |
| 2026-04-25 16:00 | 55.81501 | -0.20313 | 39270 ft | 437 kts | 85° |
| 2026-04-25 16:00 | 55.82097 | -0.05961 | 39285 ft | 437 kts | 85° |
| 2026-04-25 16:01 | 55.82534 | 0.04828 | 39273 ft | 438 kts | 85° |
| 2026-04-25 16:01 | 55.82963 | 0.15661 | 39282 ft | 440 kts | 85° |
| 2026-04-25 16:02 | 55.83384 | 0.26528 | 39265 ft | 441 kts | 85° |
| 2026-04-25 16:02 | 55.83727 | 0.35589 | 39266 ft | 442 kts | 85° |
| 2026-04-25 16:03 | 55.84133 | 0.46518 | 39268 ft | 443 kts | 85° |
| 2026-04-25 16:03 | 55.84529 | 0.57477 | 39275 ft | 444 kts | 85° |
| 2026-04-25 16:04 | 55.84917 | 0.68465 | 39273 ft | 445 kts | 85° |
| 2026-04-25 16:04 | 55.85295 | 0.79478 | 39265 ft | 446 kts | 85° |
| 2026-04-25 16:05 | 55.85665 | 0.90513 | 39258 ft | 447 kts | 85° |
| 2026-04-25 16:06 | 55.86202 | 1.07095 | 39260 ft | 447 kts | 85° |
| 2026-04-25 16:06 | 55.86547 | 1.18155 | 39265 ft | 447 kts | 85° |
| 2026-04-25 16:07 | 55.86882 | 1.29217 | 39254 ft | 447 kts | 85° |
| 2026-04-25 16:07 | 55.87207 | 1.40260 | 39253 ft | 447 kts | 85° |
| 2026-04-25 16:08 | 55.87522 | 1.51302 | 39253 ft | 446 kts | 85° |
| 2026-04-25 16:08 | 55.87827 | 1.62328 | 39248 ft | 445 kts | 85° |
| 2026-04-25 16:09 | 55.88119 | 1.73265 | 39262 ft | 445 kts | 84° |
| 2026-04-25 16:09 | 55.88404 | 1.84272 | 39243 ft | 445 kts | 84° |
| 2026-04-25 16:10 | 55.88679 | 1.95284 | 39244 ft | 444 kts | 84° |
| 2026-04-25 16:10 | 55.88943 | 2.06264 | 39242 ft | 444 kts | 85° |
| 2026-04-25 16:11 | 55.89198 | 2.17253 | 39242 ft | 444 kts | 85° |
| 2026-04-25 16:11 | 55.89442 | 2.28242 | 39256 ft | 444 kts | 84° |
| 2026-04-25 16:12 | 55.89677 | 2.39241 | 39241 ft | 444 kts | 84° |
| 2026-04-25 16:12 | 55.89903 | 2.50251 | 39234 ft | 445 kts | 84° |
| 2026-04-25 16:13 | 55.90119 | 2.61268 | 39234 ft | 445 kts | 84° |
| 2026-04-25 16:13 | 55.90325 | 2.72293 | 39229 ft | 445 kts | 84° |
| 2026-04-25 16:14 | 55.90521 | 2.83325 | 39252 ft | 445 kts | 84° |
| 2026-04-25 16:14 | 55.90708 | 2.94378 | 39226 ft | 446 kts | 84° |
| 2026-04-25 16:15 | 55.90886 | 3.05448 | 39223 ft | 447 kts | 84° |
| 2026-04-25 16:15 | 55.91053 | 3.16535 | 39207 ft | 448 kts | 84° |
| 2026-04-25 16:16 | 55.91211 | 3.27635 | 39204 ft | 448 kts | 84° |
| 2026-04-25 16:16 | 55.91360 | 3.38748 | 39204 ft | 449 kts | 84° |
| 2026-04-25 16:17 | 55.91500 | 3.49882 | 39197 ft | 450 kts | 83° |
| 2026-04-25 16:17 | 55.91704 | 3.61019 | 39193 ft | 449 kts | 83° |
| 2026-04-25 16:18 | 55.91952 | 3.72148 | 39193 ft | 450 kts | 83° |
| 2026-04-25 16:18 | 55.92184 | 3.83230 | 39191 ft | 450 kts | 83° |
| 2026-04-25 16:19 | 55.92399 | 3.94399 | 39198 ft | 451 kts | 83° |
| 2026-04-25 16:19 | 55.92601 | 4.05590 | 39204 ft | 452 kts | 82° |
| 2026-04-25 16:20 | 55.92884 | 4.22406 | 39193 ft | 453 kts | 82° |
| 2026-04-25 16:21 | 55.93146 | 4.39242 | 39187 ft | 453 kts | 83° |
| 2026-04-25 16:21 | 55.93307 | 4.50469 | 39188 ft | 453 kts | 83° |
| 2026-04-25 16:22 | 55.93459 | 4.61718 | 39186 ft | 454 kts | 82° |
| 2026-04-25 16:22 | 55.93601 | 4.72967 | 39177 ft | 454 kts | 82° |
| 2026-04-25 16:23 | 55.93732 | 4.84226 | 39173 ft | 454 kts | 82° |
| 2026-04-25 16:23 | 55.93855 | 4.95486 | 39177 ft | 455 kts | 82° |
| 2026-04-25 16:24 | 55.93982 | 5.06777 | 39164 ft | 455 kts | 82° |
| 2026-04-25 16:24 | 55.94142 | 5.18054 | 39163 ft | 455 kts | 82° |
| 2026-04-25 16:25 | 55.94298 | 5.29336 | 39161 ft | 455 kts | 82° |
| 2026-04-25 16:25 | 55.94439 | 5.40614 | 39154 ft | 455 kts | 82° |
| 2026-04-25 16:26 | 55.94567 | 5.51911 | 39161 ft | 455 kts | 82° |
| 2026-04-25 16:26 | 55.94683 | 5.63213 | 39160 ft | 456 kts | 82° |
| 2026-04-25 16:27 | 55.94790 | 5.74530 | 39153 ft | 457 kts | 82° |
| 2026-04-25 16:27 | 55.94885 | 5.85785 | 39151 ft | 457 kts | 82° |
| 2026-04-25 16:28 | 55.94972 | 5.97201 | 39136 ft | 457 kts | 82° |
| 2026-04-25 16:28 | 55.95047 | 6.08481 | 39132 ft | 457 kts | 82° |
| 2026-04-25 16:29 | 55.95112 | 6.19826 | 39124 ft | 457 kts | 82° |
| 2026-04-25 16:29 | 55.95167 | 6.31182 | 39133 ft | 458 kts | 82° |
| 2026-04-25 16:30 | 55.95212 | 6.42565 | 39115 ft | 459 kts | 82° |
| 2026-04-25 16:30 | 55.95246 | 6.53970 | 39125 ft | 460 kts | 82° |
| 2026-04-25 16:31 | 55.95269 | 6.65399 | 39113 ft | 461 kts | 82° |
| 2026-04-25 16:31 | 55.95282 | 6.76850 | 39109 ft | 462 kts | 82° |
| 2026-04-25 16:32 | 55.95285 | 6.88333 | 39098 ft | 464 kts | 82° |
| 2026-04-25 16:32 | 55.95277 | 6.99847 | 39100 ft | 465 kts | 83° |
| 2026-04-25 16:33 | 55.95258 | 7.11314 | 39086 ft | 466 kts | 83° |
| 2026-04-25 16:33 | 55.95227 | 7.22882 | 39085 ft | 466 kts | 83° |
| 2026-04-25 16:34 | 55.95186 | 7.34479 | 39070 ft | 467 kts | 83° |
| 2026-04-25 16:34 | 55.95135 | 7.46088 | 39075 ft | 468 kts | 83° |
| 2026-04-25 16:35 | 55.95072 | 7.57708 | 39057 ft | 469 kts | 83° |
| 2026-04-25 16:35 | 55.94997 | 7.69363 | 39066 ft | 470 kts | 83° |
| 2026-04-25 16:36 | 55.94912 | 7.81021 | 39053 ft | 470 kts | 83° |
| 2026-04-25 16:36 | 55.94816 | 7.92681 | 39049 ft | 470 kts | 83° |
| 2026-04-25 16:37 | 55.94709 | 8.04359 | 39045 ft | 471 kts | 83° |
| 2026-04-25 16:37 | 55.94591 | 8.16053 | 38964 ft | 473 kts | 83° |
| 2026-04-25 16:37 | 55.94530 | 8.21964 | 38459 ft | 478 kts | 83° |
| 2026-04-25 16:38 | 55.94463 | 8.27883 | 37909 ft | 476 kts | 83° |
| 2026-04-25 16:38 | 55.94391 | 8.33773 | 37384 ft | 474 kts | 83° |
| 2026-04-25 16:38 | 55.94315 | 8.39614 | 37027 ft | 468 kts | 83° |
| 2026-04-25 16:38 | 55.94238 | 8.45381 | 36619 ft | 464 kts | 83° |
| 2026-04-25 16:39 | 55.94160 | 8.51112 | 36282 ft | 460 kts | 82° |
| 2026-04-25 16:39 | 55.94081 | 8.56796 | 35897 ft | 457 kts | 82° |
| 2026-04-25 16:39 | 55.94001 | 8.62445 | 35491 ft | 454 kts | 82° |
| 2026-04-25 16:39 | 55.93920 | 8.68063 | 35108 ft | 452 kts | 82° |
| 2026-04-25 16:40 | 55.93837 | 8.73665 | 34723 ft | 450 kts | 81° |
| 2026-04-25 16:40 | 55.93751 | 8.79229 | 34348 ft | 448 kts | 81° |
| 2026-04-25 16:40 | 55.93664 | 8.84774 | 33945 ft | 447 kts | 81° |
| 2026-04-25 16:40 | 55.93574 | 8.90288 | 33513 ft | 445 kts | 81° |
| 2026-04-25 16:41 | 55.93483 | 8.95712 | 33129 ft | 442 kts | 81° |
| 2026-04-25 16:41 | 55.93451 | 8.97571 | 33001 ft | 441 kts | 81° |
| 2026-04-25 16:41 | 55.93193 | 9.12022 | 32050 ft | 436 kts | 81° |
| 2026-04-25 16:42 | 55.93093 | 9.17413 | 31670 ft | 434 kts | 81° |
| 2026-04-25 16:42 | 55.92991 | 9.22783 | 31308 ft | 432 kts | 81° |
| 2026-04-25 16:42 | 55.92887 | 9.28133 | 30948 ft | 431 kts | 81° |
| 2026-04-25 16:42 | 55.92782 | 9.33465 | 30590 ft | 429 kts | 81° |
| 2026-04-25 16:43 | 55.92674 | 9.38779 | 30221 ft | 428 kts | 81° |
| 2026-04-25 16:43 | 55.92564 | 9.44080 | 29838 ft | 427 kts | 81° |
| 2026-04-25 16:43 | 55.92452 | 9.49361 | 29434 ft | 425 kts | 81° |
| 2026-04-25 16:43 | 55.92338 | 9.54610 | 29034 ft | 422 kts | 81° |
| 2026-04-25 16:44 | 55.92222 | 9.59827 | 28655 ft | 420 kts | 81° |
| 2026-04-25 16:44 | 55.92104 | 9.65010 | 28389 ft | 417 kts | 80° |
| 2026-04-25 16:44 | 55.91986 | 9.70172 | 27967 ft | 417 kts | 79° |
| 2026-04-25 16:44 | 55.91868 | 9.75328 | 27604 ft | 415 kts | 79° |
| 2026-04-25 16:45 | 55.91746 | 9.80464 | 27232 ft | 414 kts | 79° |
| 2026-04-25 16:45 | 55.91623 | 9.85580 | 26866 ft | 412 kts | 79° |
| 2026-04-25 16:45 | 55.91498 | 9.90679 | 26502 ft | 411 kts | 79° |
| 2026-04-25 16:45 | 55.91371 | 9.95761 | 26139 ft | 410 kts | 79° |
| 2026-04-25 16:46 | 55.91243 | 10.00815 | 25764 ft | 408 kts | 79° |
| 2026-04-25 16:46 | 55.91113 | 10.05863 | 25410 ft | 407 kts | 79° |
| 2026-04-25 16:46 | 55.90981 | 10.10893 | 25061 ft | 405 kts | 79° |
| 2026-04-25 16:46 | 55.90936 | 10.12595 | 24936 ft | 405 kts | 79° |
| 2026-04-25 16:47 | 55.90714 | 10.20913 | 24348 ft | 404 kts | 79° |
| 2026-04-25 16:47 | 55.90578 | 10.25919 | 23999 ft | 406 kts | 79° |
| 2026-04-25 16:47 | 55.90441 | 10.30953 | 23610 ft | 407 kts | 79° |
| 2026-04-25 16:47 | 55.90299 | 10.35992 | 23182 ft | 407 kts | 80° |
| 2026-04-25 16:48 | 55.90154 | 10.41024 | 22792 ft | 406 kts | 80° |
| 2026-04-25 16:48 | 55.90008 | 10.46032 | 22417 ft | 404 kts | 80° |
| 2026-04-25 16:48 | 55.89860 | 10.51015 | 22054 ft | 402 kts | 80° |
| 2026-04-25 16:48 | 55.89732 | 10.54303 | 21799 ft | 406 kts | 84° |
| 2026-04-25 16:49 | 55.89259 | 10.59332 | 21331 ft | 415 kts | 91° |
| 2026-04-25 16:49 | 55.88608 | 10.64363 | 20974 ft | 416 kts | 94° |
| 2026-04-25 16:49 | 55.87929 | 10.69346 | 20613 ft | 414 kts | 94° |
| 2026-04-25 16:49 | 55.87269 | 10.74332 | 20256 ft | 411 kts | 93° |
| 2026-04-25 16:50 | 55.86641 | 10.79287 | 19914 ft | 409 kts | 92° |
| 2026-04-25 16:50 | 55.85842 | 10.85814 | 19466 ft | 406 kts | 92° |
| 2026-04-25 16:50 | 55.85439 | 10.89124 | 19227 ft | 405 kts | 92° |
| 2026-04-25 16:50 | 55.84840 | 10.94021 | 18871 ft | 405 kts | 93° |
| 2026-04-25 16:51 | 55.84173 | 10.98917 | 18498 ft | 407 kts | 96° |
| 2026-04-25 16:51 | 55.83449 | 11.03772 | 18158 ft | 406 kts | 96° |
| 2026-04-25 16:51 | 55.82710 | 11.08621 | 17759 ft | 405 kts | 97° |
| 2026-04-25 16:51 | 55.82222 | 11.11824 | 17523 ft | 404 kts | 97° |
| 2026-04-25 16:52 | 55.81252 | 11.18242 | 17051 ft | 400 kts | 96° |
| 2026-04-25 16:52 | 55.80538 | 11.23007 | 16706 ft | 397 kts | 96° |
| 2026-04-25 16:52 | 55.79832 | 11.27741 | 16361 ft | 395 kts | 96° |
| 2026-04-25 16:52 | 55.79131 | 11.32443 | 16079 ft | 393 kts | 97° |
| 2026-04-25 16:53 | 55.77728 | 11.41799 | 15325 ft | 390 kts | 98° |
| 2026-04-25 16:53 | 55.77216 | 11.46462 | 14961 ft | 379 kts | 85° |
| 2026-04-25 16:53 | 55.77124 | 11.51018 | 14659 ft | 371 kts | 82° |
| 2026-04-25 16:54 | 55.77101 | 11.55583 | 14317 ft | 368 kts | 82° |
| 2026-04-25 16:54 | 55.77067 | 11.60120 | 13990 ft | 366 kts | 83° |
| 2026-04-25 16:54 | 55.77004 | 11.64630 | 13663 ft | 364 kts | 83° |
| 2026-04-25 16:54 | 55.76918 | 11.69110 | 13303 ft | 362 kts | 84° |
| 2026-04-25 16:55 | 55.76824 | 11.73553 | 12953 ft | 358 kts | 84° |
| 2026-04-25 16:55 | 55.76921 | 11.77883 | 12665 ft | 342 kts | 71° |
| 2026-04-25 16:55 | 55.77394 | 11.81955 | 12430 ft | 333 kts | 68° |
| 2026-04-25 16:55 | 55.77920 | 11.85923 | 12170 ft | 328 kts | 67° |
| 2026-04-25 16:56 | 55.78444 | 11.89857 | 11962 ft | 325 kts | 68° |
| 2026-04-25 16:56 | 55.78950 | 11.93750 | 11699 ft | 322 kts | 69° |
| 2026-04-25 16:56 | 55.79438 | 11.97611 | 11449 ft | 319 kts | 69° |
| 2026-04-25 16:56 | 55.79912 | 12.01437 | 11207 ft | 315 kts | 70° |
| 2026-04-25 16:57 | 55.80376 | 12.05227 | 10973 ft | 312 kts | 70° |
| 2026-04-25 16:57 | 55.80679 | 12.07719 | 10815 ft | 310 kts | 70° |
| 2026-04-25 16:57 | 55.81279 | 12.12697 | 10519 ft | 306 kts | 70° |
| 2026-04-25 16:57 | 55.81721 | 12.16380 | 10283 ft | 303 kts | 71° |
| 2026-04-25 16:58 | 55.82159 | 12.20030 | 10044 ft | 301 kts | 71° |
| 2026-04-25 16:58 | 55.82592 | 12.23653 | 9831 ft | 298 kts | 71° |
| 2026-04-25 16:58 | 55.83019 | 12.27248 | 9598 ft | 296 kts | 71° |
| 2026-04-25 16:58 | 55.83443 | 12.30820 | 9356 ft | 294 kts | 71° |
| 2026-04-25 16:59 | 55.83663 | 12.34443 | 9087 ft | 301 kts | 91° |
| 2026-04-25 16:59 | 55.82974 | 12.37966 | 8816 ft | 307 kts | 119° |
| 2026-04-25 16:59 | 55.81810 | 12.41129 | 8582 ft | 305 kts | 122° |
| 2026-04-25 16:59 | 55.80626 | 12.44249 | 8317 ft | 304 kts | 122° |
| 2026-04-25 17:00 | 55.79459 | 12.47374 | 8066 ft | 303 kts | 121° |
| 2026-04-25 17:00 | 55.78303 | 12.50505 | 7810 ft | 303 kts | 121° |
| 2026-04-25 17:00 | 55.77167 | 12.53597 | 7551 ft | 303 kts | 121° |
| 2026-04-25 17:00 | 55.76019 | 12.56724 | 7286 ft | 302 kts | 121° |
| 2026-04-25 17:01 | 55.74873 | 12.59843 | 7041 ft | 301 kts | 121° |
| 2026-04-25 17:01 | 55.73727 | 12.62960 | 6787 ft | 300 kts | 120° |
| 2026-04-25 17:01 | 55.72587 | 12.66060 | 6542 ft | 300 kts | 120° |
| 2026-04-25 17:01 | 55.71448 | 12.69152 | 6284 ft | 299 kts | 120° |
| 2026-04-25 17:02 | 55.70309 | 12.72236 | 6021 ft | 298 kts | 120° |
| 2026-04-25 17:02 | 55.69173 | 12.75308 | 5759 ft | 298 kts | 120° |
| 2026-04-25 17:02 | 55.68040 | 12.78374 | 5493 ft | 297 kts | 120° |
| 2026-04-25 17:02 | 55.66913 | 12.81423 | 5229 ft | 296 kts | 120° |
| 2026-04-25 17:03 | 55.65789 | 12.84460 | 5032 ft | 292 kts | 120° |
| 2026-04-25 17:03 | 55.64689 | 12.87421 | 4988 ft | 283 kts | 120° |
| 2026-04-25 17:03 | 55.63628 | 12.90275 | 4973 ft | 272 kts | 119° |
| 2026-04-25 17:03 | 55.62597 | 12.93029 | 4977 ft | 267 kts | 120° |
| 2026-04-25 17:04 | 55.61558 | 12.95736 | 4990 ft | 265 kts | 121° |
| 2026-04-25 17:04 | 55.60516 | 12.98442 | 4962 ft | 267 kts | 122° |
| 2026-04-25 17:04 | 55.59469 | 13.01152 | 4867 ft | 263 kts | 122° |
| 2026-04-25 17:04 | 55.58454 | 13.03778 | 4769 ft | 254 kts | 122° |
| 2026-04-25 17:05 | 55.57477 | 13.06300 | 4550 ft | 243 kts | 121° |
| 2026-04-25 17:05 | 55.55053 | 13.09651 | 4090 ft | 220 kts | 184° |
| 2026-04-25 17:05 | 55.53636 | 13.09150 | 4035 ft | 200 kts | 219° |
| 2026-04-25 17:06 | 55.52606 | 13.07691 | 4007 ft | 184 kts | 243° |
| 2026-04-25 17:06 | 55.51899 | 13.05859 | 3975 ft | 180 kts | 248° |
| 2026-04-25 17:06 | 55.51203 | 13.04000 | 3848 ft | 183 kts | 248° |
| 2026-04-25 17:06 | 55.50506 | 13.02144 | 3678 ft | 180 kts | 248° |
| 2026-04-25 17:07 | 55.49918 | 13.00275 | 3504 ft | 165 kts | 267° |
| 2026-04-25 17:07 | 55.50123 | 12.98512 | 3361 ft | 144 kts | 303° |
| 2026-04-25 17:07 | 55.50585 | 12.96918 | 3207 ft | 148 kts | 298° |
| 2026-04-25 17:07 | 55.51033 | 12.95278 | 3066 ft | 148 kts | 300° |
| 2026-04-25 17:08 | 55.51522 | 12.93703 | 3012 ft | 146 kts | 303° |
| 2026-04-25 17:08 | 55.52046 | 12.92167 | 2986 ft | 146 kts | 304° |
| 2026-04-25 17:08 | 55.52586 | 12.90656 | 3034 ft | 146 kts | 305° |
| 2026-04-25 17:08 | 55.53150 | 12.89103 | 2900 ft | 150 kts | 305° |
| 2026-04-25 17:09 | 55.53716 | 12.87559 | 2801 ft | 151 kts | 305° |
| 2026-04-25 17:09 | 55.54286 | 12.85984 | 2589 ft | 153 kts | 305° |
| 2026-04-25 17:09 | 55.54859 | 12.84424 | 2418 ft | 150 kts | 305° |
| 2026-04-25 17:09 | 55.55422 | 12.82890 | 2191 ft | 148 kts | 305° |
| 2026-04-25 17:10 | 55.55984 | 12.81367 | 2005 ft | 149 kts | 305° |
| 2026-04-25 17:10 | 55.56545 | 12.79843 | 1774 ft | 147 kts | 304° |
| 2026-04-25 17:10 | 55.57105 | 12.78317 | 1605 ft | 149 kts | 305° |
| 2026-04-25 17:10 | 55.57659 | 12.76791 | 1398 ft | 144 kts | 304° |
| 2026-04-25 17:11 | 55.58182 | 12.75382 | 1189 ft | 129 kts | 305° |
| 2026-04-25 17:11 | 55.58639 | 12.74146 | 1006 ft | 116 kts | 304° |
| 2026-04-25 17:11 | 55.59069 | 12.72984 | 846 ft | 113 kts | 304° |
| 2026-04-25 17:11 | 55.59505 | 12.71794 | 723 ft | 117 kts | 304° |
| 2026-04-25 17:12 | 55.59949 | 12.70591 | 580 ft | 117 kts | 304° |
| 2026-04-25 17:12 | 55.60394 | 12.69386 | 402 ft | 117 kts | 303° |
| 2026-04-25 17:12 | 55.60839 | 12.68175 | 257 ft | 118 kts | 301° |
| 2026-04-25 17:12 | 55.61289 | 12.66958 | 95 ft | 117 kts | 303° |
| 2026-04-25 17:13 | 55.61726 | 12.65783 | 31 ft | 101 kts | 304° |
| 2026-04-25 17:13 | 55.61842 | 12.65467 | 22 ft | 80 kts | 303° |
| 2026-04-25 17:13 | 55.62057 | 12.64993 | 23 ft | 10 kts | 20° |
| 2026-04-25 17:13 | 55.62112 | 12.65063 | 26 ft | 10 kts | 33° |
| 2026-04-25 17:14 | 55.62150 | 12.65107 | 26 ft | 0 kts | 34° |
| 2026-04-25 17:15 | 55.62151 | 12.65107 | 26 ft | 1 kts | 33° |
| 2026-04-25 17:15 | 55.62160 | 12.65121 | 24 ft | 3 kts | 38° |
| 2026-04-25 17:16 | 55.62192 | 12.65157 | 23 ft | 7 kts | 32° |
| 2026-04-25 17:16 | 55.62251 | 12.65197 | 23 ft | 11 kts | 7° |
| 2026-04-25 17:16 | 55.62295 | 12.65280 | 23 ft | 10 kts | 68° |
| 2026-04-25 17:16 | 55.62350 | 12.65329 | 23 ft | 9 kts | 359° |
| 2026-04-25 17:17 | 55.62414 | 12.65331 | 23 ft | 9 kts | 15° |
| 2026-04-25 17:17 | 55.62443 | 12.65420 | 23 ft | 9 kts | 84° |
| 2026-04-25 17:17 | 55.62449 | 12.65512 | 25 ft | 5 kts | 54° |
| 2026-04-25 17:17 | 55.62480 | 12.65542 | 23 ft | 5 kts | 25° |
| 2026-04-25 17:18 | 55.62510 | 12.65565 | 23 ft | 4 kts | 23° |
| 2026-04-25 17:18 | 55.62519 | 12.65572 | 23 ft | 0 kts | 23° |